sensor_id;sensor_type;location;lat;lon;timestamp;P1;durP1;ratioP1;P2;durP2;ratioP2
49023;SDS011;34839;-33.872;151.172;2022-10-10T00:01:09;6.63;;;1.13;;
49023;SDS011;34839;-33.872;151.172;2022-10-10T00:03:37;10.07;;;1.70;;
49023;SDS011;34839;-33.872;151.172;2022-10-10T00:06:04;7.28;;;1.15;;
49023;SDS011;34839;-33.872;151.172;2022-10-10T00:08:31;10.60;;;1.60;;
49023;SDS011;34839;-33.872;151.172;2022-10-10T00:10:59;8.23;;;1.50;;
49023;SDS011;34839;-33.872;151.172;2022-10-10T00:13:26;9.02;;;1.40;;
49023;SDS011;34839;-33.872;151.172;2022-10-10T00:15:53;7.90;;;1.23;;
49023;SDS011;34839;-33.872;151.172;2022-10-10T00:18:20;5.90;;;1.35;;
49023;SDS011;34839;-33.872;151.172;2022-10-10T00:20:51;9.13;;;1.30;;
49023;SDS011;34839;-33.872;151.172;2022-10-10T00:23:18;11.80;;;1.73;;
49023;SDS011;34839;-33.872;151.172;2022-10-10T00:25:46;15.50;;;1.90;;
49023;SDS011;34839;-33.872;151.172;2022-10-10T00:28:13;11.02;;;1.90;;
49023;SDS011;34839;-33.872;151.172;2022-10-10T00:30:40;8.52;;;1.65;;
49023;SDS011;34839;-33.872;151.172;2022-10-10T00:33:08;3.72;;;1.17;;
49023;SDS011;34839;-33.872;151.172;2022-10-10T00:35:35;9.38;;;1.33;;
49023;SDS011;34839;-33.872;151.172;2022-10-10T00:38:02;8.27;;;1.75;;
49023;SDS011;34839;-33.872;151.172;2022-10-10T00:40:30;5.03;;;1.42;;
49023;SDS011;34839;-33.872;151.172;2022-10-10T00:42:57;9.50;;;1.98;;
49023;SDS011;34839;-33.872;151.172;2022-10-10T00:48:02;6.03;;;1.42;;
49023;SDS011;34839;-33.872;151.172;2022-10-10T00:50:31;12.07;;;1.80;;
49023;SDS011;34839;-33.872;151.172;2022-10-10T00:52:59;5.78;;;1.50;;
49023;SDS011;34839;-33.872;151.172;2022-10-10T00:55:26;13.60;;;1.65;;
49023;SDS011;34839;-33.872;151.172;2022-10-10T00:57:54;9.32;;;1.40;;
49023;SDS011;34839;-33.872;151.172;2022-10-10T01:00:21;10.02;;;1.70;;
49023;SDS011;34839;-33.872;151.172;2022-10-10T01:02:48;11.30;;;1.65;;
49023;SDS011;34839;-33.872;151.172;2022-10-10T01:05:16;9.82;;;1.70;;
49023;SDS011;34839;-33.872;151.172;2022-10-10T01:07:43;9.18;;;1.45;;
49023;SDS011;34839;-33.872;151.172;2022-10-10T01:10:11;7.63;;;1.50;;
49023;SDS011;34839;-33.872;151.172;2022-10-10T01:12:52;9.18;;;1.30;;
49023;SDS011;34839;-33.872;151.172;2022-10-10T01:17:58;6.03;;;1.63;;
49023;SDS011;34839;-33.872;151.172;2022-10-10T01:20:29;7.50;;;1.30;;
49023;SDS011;34839;-33.872;151.172;2022-10-10T01:23:11;10.38;;;1.50;;
49023;SDS011;34839;-33.872;151.172;2022-10-10T01:25:52;11.70;;;2.15;;
49023;SDS011;34839;-33.872;151.172;2022-10-10T01:30:53;6.30;;;1.27;;
49023;SDS011;34839;-33.872;151.172;2022-10-10T01:33:25;7.20;;;1.52;;
49023;SDS011;34839;-33.872;151.172;2022-10-10T01:35:54;6.57;;;1.40;;
49023;SDS011;34839;-33.872;151.172;2022-10-10T01:43:34;12.05;;;1.55;;
49023;SDS011;34839;-33.872;151.172;2022-10-10T01:46:11;9.05;;;1.23;;
49023;SDS011;34839;-33.872;151.172;2022-10-10T01:48:39;9.98;;;1.63;;
49023;SDS011;34839;-33.872;151.172;2022-10-10T01:53:46;9.43;;;1.58;;
49023;SDS011;34839;-33.872;151.172;2022-10-10T02:03:56;6.35;;;1.23;;
49023;SDS011;34839;-33.872;151.172;2022-10-10T02:06:40;7.95;;;1.60;;
49023;SDS011;34839;-33.872;151.172;2022-10-10T02:09:11;8.35;;;1.23;;
49023;SDS011;34839;-33.872;151.172;2022-10-10T02:11:40;9.30;;;1.60;;
49023;SDS011;34839;-33.872;151.172;2022-10-10T02:14:15;14.18;;;1.80;;
49023;SDS011;34839;-33.872;151.172;2022-10-10T02:16:44;10.05;;;1.23;;
49023;SDS011;34839;-33.872;151.172;2022-10-10T02:19:13;6.57;;;1.42;;
49023;SDS011;34839;-33.872;151.172;2022-10-10T02:21:43;12.33;;;1.87;;
49023;SDS011;34839;-33.872;151.172;2022-10-10T02:24:11;9.90;;;1.13;;
49023;SDS011;34839;-33.872;151.172;2022-10-10T02:26:40;9.50;;;1.10;;
49023;SDS011;34839;-33.872;151.172;2022-10-10T02:29:10;8.00;;;1.48;;
49023;SDS011;34839;-33.872;151.172;2022-10-10T02:31:45;8.55;;;1.40;;
49023;SDS011;34839;-33.872;151.172;2022-10-10T02:34:22;6.38;;;1.08;;
49023;SDS011;34839;-33.872;151.172;2022-10-10T02:36:51;5.65;;;1.30;;
49023;SDS011;34839;-33.872;151.172;2022-10-10T02:39:21;9.07;;;1.50;;
49023;SDS011;34839;-33.872;151.172;2022-10-10T02:41:49;7.72;;;1.50;;
49023;SDS011;34839;-33.872;151.172;2022-10-10T02:44:18;8.27;;;1.42;;
49023;SDS011;34839;-33.872;151.172;2022-10-10T02:46:46;6.32;;;1.60;;
49023;SDS011;34839;-33.872;151.172;2022-10-10T02:49:13;4.00;;;0.95;;
49023;SDS011;34839;-33.872;151.172;2022-10-10T02:51:40;8.50;;;1.25;;
49023;SDS011;34839;-33.872;151.172;2022-10-10T02:54:08;9.95;;;1.60;;
49023;SDS011;34839;-33.872;151.172;2022-10-10T02:56:35;10.18;;;1.30;;
49023;SDS011;34839;-33.872;151.172;2022-10-10T02:59:02;8.63;;;1.75;;
49023;SDS011;34839;-33.872;151.172;2022-10-10T03:01:29;9.32;;;1.90;;
49023;SDS011;34839;-33.872;151.172;2022-10-10T03:03:57;6.28;;;1.48;;
49023;SDS011;34839;-33.872;151.172;2022-10-10T03:06:24;9.30;;;1.48;;
49023;SDS011;34839;-33.872;151.172;2022-10-10T03:08:51;12.25;;;1.60;;
49023;SDS011;34839;-33.872;151.172;2022-10-10T03:11:18;7.10;;;1.30;;
49023;SDS011;34839;-33.872;151.172;2022-10-10T03:13:46;9.10;;;1.77;;
49023;SDS011;34839;-33.872;151.172;2022-10-10T03:16:13;9.85;;;1.40;;
49023;SDS011;34839;-33.872;151.172;2022-10-10T03:18:40;10.68;;;1.52;;
49023;SDS011;34839;-33.872;151.172;2022-10-10T03:21:07;7.90;;;1.65;;
49023;SDS011;34839;-33.872;151.172;2022-10-10T03:23:35;7.72;;;1.20;;
49023;SDS011;34839;-33.872;151.172;2022-10-10T03:26:02;6.35;;;1.45;;
49023;SDS011;34839;-33.872;151.172;2022-10-10T03:28:30;12.23;;;1.63;;
49023;SDS011;34839;-33.872;151.172;2022-10-10T03:30:57;5.30;;;1.52;;
49023;SDS011;34839;-33.872;151.172;2022-10-10T03:33:24;11.38;;;1.60;;
49023;SDS011;34839;-33.872;151.172;2022-10-10T03:35:51;13.35;;;1.50;;
49023;SDS011;34839;-33.872;151.172;2022-10-10T03:38:19;8.27;;;1.35;;
49023;SDS011;34839;-33.872;151.172;2022-10-10T03:40:46;10.02;;;1.65;;
49023;SDS011;34839;-33.872;151.172;2022-10-10T03:43:14;6.45;;;1.20;;
49023;SDS011;34839;-33.872;151.172;2022-10-10T03:45:41;9.18;;;1.23;;
49023;SDS011;34839;-33.872;151.172;2022-10-10T03:48:09;12.25;;;3.42;;
49023;SDS011;34839;-33.872;151.172;2022-10-10T03:50:36;8.57;;;2.65;;
49023;SDS011;34839;-33.872;151.172;2022-10-10T03:53:04;10.27;;;1.48;;
49023;SDS011;34839;-33.872;151.172;2022-10-10T03:55:31;11.70;;;2.25;;
49023;SDS011;34839;-33.872;151.172;2022-10-10T03:58:02;7.15;;;1.40;;
49023;SDS011;34839;-33.872;151.172;2022-10-10T04:00:29;6.60;;;1.15;;
49023;SDS011;34839;-33.872;151.172;2022-10-10T04:02:56;8.43;;;1.38;;
49023;SDS011;34839;-33.872;151.172;2022-10-10T04:05:23;10.55;;;1.92;;
49023;SDS011;34839;-33.872;151.172;2022-10-10T04:07:51;10.13;;;2.45;;
49023;SDS011;34839;-33.872;151.172;2022-10-10T04:10:18;11.93;;;2.20;;
49023;SDS011;34839;-33.872;151.172;2022-10-10T04:12:45;4.22;;;1.00;;
49023;SDS011;34839;-33.872;151.172;2022-10-10T04:15:13;8.55;;;1.10;;
49023;SDS011;34839;-33.872;151.172;2022-10-10T04:17:40;6.43;;;1.00;;
49023;SDS011;34839;-33.872;151.172;2022-10-10T04:20:07;8.57;;;1.40;;
49023;SDS011;34839;-33.872;151.172;2022-10-10T04:22:35;7.18;;;1.10;;
49023;SDS011;34839;-33.872;151.172;2022-10-10T04:25:02;10.57;;;1.20;;
49023;SDS011;34839;-33.872;151.172;2022-10-10T04:27:29;9.93;;;1.55;;
49023;SDS011;34839;-33.872;151.172;2022-10-10T04:29:57;7.57;;;1.45;;
49023;SDS011;34839;-33.872;151.172;2022-10-10T04:32:24;5.28;;;1.70;;
49023;SDS011;34839;-33.872;151.172;2022-10-10T04:34:51;9.48;;;1.73;;
49023;SDS011;34839;-33.872;151.172;2022-10-10T04:37:18;11.68;;;1.70;;
49023;SDS011;34839;-33.872;151.172;2022-10-10T04:39:46;7.82;;;1.08;;
49023;SDS011;34839;-33.872;151.172;2022-10-10T04:42:16;5.90;;;1.42;;
49023;SDS011;34839;-33.872;151.172;2022-10-10T04:44:43;9.55;;;1.38;;
49023;SDS011;34839;-33.872;151.172;2022-10-10T04:47:10;6.82;;;1.20;;
49023;SDS011;34839;-33.872;151.172;2022-10-10T04:49:38;8.27;;;1.38;;
49023;SDS011;34839;-33.872;151.172;2022-10-10T04:52:07;7.82;;;1.17;;
49023;SDS011;34839;-33.872;151.172;2022-10-10T04:54:34;4.25;;;1.30;;
49023;SDS011;34839;-33.872;151.172;2022-10-10T04:57:01;7.25;;;1.00;;
49023;SDS011;34839;-33.872;151.172;2022-10-10T04:59:29;10.07;;;1.50;;
49023;SDS011;34839;-33.872;151.172;2022-10-10T05:01:56;9.00;;;1.20;;
49023;SDS011;34839;-33.872;151.172;2022-10-10T05:04:25;8.35;;;1.17;;
49023;SDS011;34839;-33.872;151.172;2022-10-10T05:06:52;7.65;;;1.33;;
49023;SDS011;34839;-33.872;151.172;2022-10-10T05:09:20;7.28;;;1.25;;
49023;SDS011;34839;-33.872;151.172;2022-10-10T05:11:47;5.78;;;1.58;;
49023;SDS011;34839;-33.872;151.172;2022-10-10T05:14:14;6.53;;;1.10;;
49023;SDS011;34839;-33.872;151.172;2022-10-10T05:16:41;6.82;;;1.40;;
49023;SDS011;34839;-33.872;151.172;2022-10-10T05:19:08;8.10;;;1.38;;
49023;SDS011;34839;-33.872;151.172;2022-10-10T05:21:36;8.10;;;1.50;;
49023;SDS011;34839;-33.872;151.172;2022-10-10T05:24:03;8.68;;;1.30;;
49023;SDS011;34839;-33.872;151.172;2022-10-10T05:26:31;9.38;;;1.60;;
49023;SDS011;34839;-33.872;151.172;2022-10-10T05:28:58;6.15;;;1.10;;
49023;SDS011;34839;-33.872;151.172;2022-10-10T05:31:26;9.85;;;1.70;;
49023;SDS011;34839;-33.872;151.172;2022-10-10T05:33:54;8.45;;;1.38;;
49023;SDS011;34839;-33.872;151.172;2022-10-10T05:36:21;4.97;;;1.13;;
49023;SDS011;34839;-33.872;151.172;2022-10-10T05:38:48;8.45;;;1.50;;
49023;SDS011;34839;-33.872;151.172;2022-10-10T05:41:16;8.45;;;1.30;;
49023;SDS011;34839;-33.872;151.172;2022-10-10T05:43:43;5.65;;;1.50;;
49023;SDS011;34839;-33.872;151.172;2022-10-10T05:46:11;6.07;;;1.05;;
49023;SDS011;34839;-33.872;151.172;2022-10-10T05:48:39;11.00;;;1.65;;
49023;SDS011;34839;-33.872;151.172;2022-10-10T05:51:06;3.03;;;0.93;;
49023;SDS011;34839;-33.872;151.172;2022-10-10T05:53:33;7.55;;;1.40;;
49023;SDS011;34839;-33.872;151.172;2022-10-10T05:56:00;8.07;;;1.50;;
49023;SDS011;34839;-33.872;151.172;2022-10-10T05:58:28;4.43;;;1.40;;
49023;SDS011;34839;-33.872;151.172;2022-10-10T06:01:00;6.55;;;1.70;;
49023;SDS011;34839;-33.872;151.172;2022-10-10T06:03:28;10.77;;;1.95;;
49023;SDS011;34839;-33.872;151.172;2022-10-10T06:05:55;9.13;;;1.65;;
49023;SDS011;34839;-33.872;151.172;2022-10-10T06:08:23;8.27;;;1.50;;
49023;SDS011;34839;-33.872;151.172;2022-10-10T06:10:50;11.98;;;2.28;;
49023;SDS011;34839;-33.872;151.172;2022-10-10T06:13:18;8.05;;;2.08;;
49023;SDS011;34839;-33.872;151.172;2022-10-10T06:15:45;8.35;;;1.55;;
49023;SDS011;34839;-33.872;151.172;2022-10-10T06:18:12;7.90;;;1.65;;
49023;SDS011;34839;-33.872;151.172;2022-10-10T06:20:40;7.45;;;1.40;;
49023;SDS011;34839;-33.872;151.172;2022-10-10T06:23:07;5.68;;;1.50;;
49023;SDS011;34839;-33.872;151.172;2022-10-10T06:25:35;9.30;;;1.27;;
49023;SDS011;34839;-33.872;151.172;2022-10-10T06:28:02;4.88;;;1.20;;
49023;SDS011;34839;-33.872;151.172;2022-10-10T06:30:30;6.40;;;1.63;;
49023;SDS011;34839;-33.872;151.172;2022-10-10T06:32:59;11.40;;;1.63;;
49023;SDS011;34839;-33.872;151.172;2022-10-10T06:35:26;5.47;;;1.73;;
49023;SDS011;34839;-33.872;151.172;2022-10-10T06:37:54;5.95;;;1.40;;
49023;SDS011;34839;-33.872;151.172;2022-10-10T06:40:21;8.07;;;1.70;;
49023;SDS011;34839;-33.872;151.172;2022-10-10T06:42:48;7.07;;;1.38;;
49023;SDS011;34839;-33.872;151.172;2022-10-10T06:45:16;6.13;;;1.42;;
49023;SDS011;34839;-33.872;151.172;2022-10-10T06:47:43;9.38;;;1.73;;
49023;SDS011;34839;-33.872;151.172;2022-10-10T06:50:10;7.78;;;1.77;;
49023;SDS011;34839;-33.872;151.172;2022-10-10T06:52:39;10.25;;;1.60;;
49023;SDS011;34839;-33.872;151.172;2022-10-10T06:55:06;6.97;;;1.92;;
49023;SDS011;34839;-33.872;151.172;2022-10-10T06:57:33;10.88;;;2.00;;
49023;SDS011;34839;-33.872;151.172;2022-10-10T07:00:01;9.25;;;1.67;;
49023;SDS011;34839;-33.872;151.172;2022-10-10T07:02:28;6.75;;;1.40;;
49023;SDS011;34839;-33.872;151.172;2022-10-10T07:04:55;8.93;;;1.35;;
49023;SDS011;34839;-33.872;151.172;2022-10-10T07:07:23;7.15;;;1.58;;
49023;SDS011;34839;-33.872;151.172;2022-10-10T07:09:50;7.03;;;1.58;;
49023;SDS011;34839;-33.872;151.172;2022-10-10T07:12:17;8.20;;;1.77;;
49023;SDS011;34839;-33.872;151.172;2022-10-10T07:14:45;8.18;;;2.00;;
49023;SDS011;34839;-33.872;151.172;2022-10-10T07:17:12;8.50;;;1.70;;
49023;SDS011;34839;-33.872;151.172;2022-10-10T07:19:39;5.97;;;1.33;;
49023;SDS011;34839;-33.872;151.172;2022-10-10T07:22:06;5.25;;;1.40;;
49023;SDS011;34839;-33.872;151.172;2022-10-10T07:24:33;5.88;;;1.85;;
49023;SDS011;34839;-33.872;151.172;2022-10-10T07:27:01;10.73;;;1.80;;
49023;SDS011;34839;-33.872;151.172;2022-10-10T07:29:29;8.68;;;1.73;;
49023;SDS011;34839;-33.872;151.172;2022-10-10T07:31:57;11.25;;;1.92;;
49023;SDS011;34839;-33.872;151.172;2022-10-10T07:34:24;9.68;;;2.17;;
49023;SDS011;34839;-33.872;151.172;2022-10-10T07:36:51;11.10;;;1.90;;
49023;SDS011;34839;-33.872;151.172;2022-10-10T07:39:22;8.88;;;1.67;;
49023;SDS011;34839;-33.872;151.172;2022-10-10T07:41:50;11.50;;;1.50;;
49023;SDS011;34839;-33.872;151.172;2022-10-10T07:44:17;11.45;;;1.60;;
49023;SDS011;34839;-33.872;151.172;2022-10-10T07:46:45;7.45;;;1.73;;
49023;SDS011;34839;-33.872;151.172;2022-10-10T07:49:12;6.60;;;1.50;;
49023;SDS011;34839;-33.872;151.172;2022-10-10T07:51:40;9.63;;;1.65;;
49023;SDS011;34839;-33.872;151.172;2022-10-10T07:54:08;9.40;;;1.50;;
49023;SDS011;34839;-33.872;151.172;2022-10-10T07:56:35;9.00;;;1.70;;
49023;SDS011;34839;-33.872;151.172;2022-10-10T07:59:02;11.35;;;1.80;;
49023;SDS011;34839;-33.872;151.172;2022-10-10T08:01:30;10.98;;;2.30;;
49023;SDS011;34839;-33.872;151.172;2022-10-10T08:03:57;10.48;;;2.05;;
49023;SDS011;34839;-33.872;151.172;2022-10-10T08:06:24;6.25;;;1.80;;
49023;SDS011;34839;-33.872;151.172;2022-10-10T08:08:51;7.60;;;1.73;;
49023;SDS011;34839;-33.872;151.172;2022-10-10T08:11:19;9.88;;;1.83;;
49023;SDS011;34839;-33.872;151.172;2022-10-10T08:13:47;6.38;;;2.13;;
49023;SDS011;34839;-33.872;151.172;2022-10-10T08:16:15;8.93;;;1.77;;
49023;SDS011;34839;-33.872;151.172;2022-10-10T08:18:42;9.68;;;2.20;;
49023;SDS011;34839;-33.872;151.172;2022-10-10T08:21:10;12.48;;;1.77;;
49023;SDS011;34839;-33.872;151.172;2022-10-10T08:23:38;8.70;;;1.90;;
49023;SDS011;34839;-33.872;151.172;2022-10-10T08:26:06;10.43;;;1.77;;
49023;SDS011;34839;-33.872;151.172;2022-10-10T08:28:37;10.02;;;2.05;;
49023;SDS011;34839;-33.872;151.172;2022-10-10T08:31:08;6.38;;;1.83;;
49023;SDS011;34839;-33.872;151.172;2022-10-10T08:33:36;4.50;;;1.75;;
49023;SDS011;34839;-33.872;151.172;2022-10-10T08:36:04;7.65;;;1.98;;
49023;SDS011;34839;-33.872;151.172;2022-10-10T08:38:32;12.55;;;2.30;;
49023;SDS011;34839;-33.872;151.172;2022-10-10T08:41:00;14.80;;;2.88;;
49023;SDS011;34839;-33.872;151.172;2022-10-10T08:43:33;8.88;;;2.30;;
49023;SDS011;34839;-33.872;151.172;2022-10-10T08:46:07;8.13;;;1.98;;
49023;SDS011;34839;-33.872;151.172;2022-10-10T08:48:35;12.70;;;1.95;;
49023;SDS011;34839;-33.872;151.172;2022-10-10T08:51:12;14.77;;;1.95;;
49023;SDS011;34839;-33.872;151.172;2022-10-10T08:53:43;7.72;;;2.10;;
49023;SDS011;34839;-33.872;151.172;2022-10-10T08:56:15;8.15;;;2.13;;
49023;SDS011;34839;-33.872;151.172;2022-10-10T08:58:44;7.53;;;2.28;;
49023;SDS011;34839;-33.872;151.172;2022-10-10T09:01:20;8.52;;;2.30;;
49023;SDS011;34839;-33.872;151.172;2022-10-10T09:03:50;9.90;;;2.92;;
49023;SDS011;34839;-33.872;151.172;2022-10-10T09:09:00;6.07;;;2.25;;
49023;SDS011;34839;-33.872;151.172;2022-10-10T09:11:39;7.13;;;1.83;;
49023;SDS011;34839;-33.872;151.172;2022-10-10T09:21:36;16.17;;;2.40;;
49023;SDS011;34839;-33.872;151.172;2022-10-10T09:26:55;12.35;;;2.65;;
49023;SDS011;34839;-33.872;151.172;2022-10-10T09:32:52;8.57;;;1.98;;
49023;SDS011;34839;-33.872;151.172;2022-10-10T09:35:16;10.73;;;2.15;;
49023;SDS011;34839;-33.872;151.172;2022-10-10T09:37:44;8.32;;;2.05;;
49023;SDS011;34839;-33.872;151.172;2022-10-10T09:42:42;8.13;;;1.17;;
49023;SDS011;34839;-33.872;151.172;2022-10-10T09:45:17;5.00;;;1.65;;
49023;SDS011;34839;-33.872;151.172;2022-10-10T09:47:49;13.70;;;2.20;;
49023;SDS011;34839;-33.872;151.172;2022-10-10T09:50:17;8.13;;;1.80;;
49023;SDS011;34839;-33.872;151.172;2022-10-10T09:52:44;11.73;;;2.05;;
49023;SDS011;34839;-33.872;151.172;2022-10-10T09:55:34;11.95;;;2.00;;
49023;SDS011;34839;-33.872;151.172;2022-10-10T10:00:42;15.93;;;2.25;;
49023;SDS011;34839;-33.872;151.172;2022-10-10T10:05:37;9.43;;;2.58;;
49023;SDS011;34839;-33.872;151.172;2022-10-10T10:08:15;11.18;;;2.15;;
49023;SDS011;34839;-33.872;151.172;2022-10-10T10:10:43;7.18;;;2.13;;
49023;SDS011;34839;-33.872;151.172;2022-10-10T10:13:17;6.65;;;1.83;;
49023;SDS011;34839;-33.872;151.172;2022-10-10T10:15:47;5.82;;;1.42;;
49023;SDS011;34839;-33.872;151.172;2022-10-10T10:20:47;9.65;;;2.22;;
49023;SDS011;34839;-33.872;151.172;2022-10-10T10:25:59;4.63;;;1.40;;
49023;SDS011;34839;-33.872;151.172;2022-10-10T10:28:27;9.73;;;1.52;;
49023;SDS011;34839;-33.872;151.172;2022-10-10T10:30:55;7.47;;;1.60;;
49023;SDS011;34839;-33.872;151.172;2022-10-10T10:33:33;8.23;;;1.75;;
49023;SDS011;34839;-33.872;151.172;2022-10-10T10:38:54;7.35;;;1.50;;
49023;SDS011;34839;-33.872;151.172;2022-10-10T10:41:44;7.28;;;1.73;;
49023;SDS011;34839;-33.872;151.172;2022-10-10T10:46:46;7.15;;;1.70;;
49023;SDS011;34839;-33.872;151.172;2022-10-10T10:49:33;9.10;;;2.40;;
49023;SDS011;34839;-33.872;151.172;2022-10-10T10:57:43;10.00;;;2.45;;
49023;SDS011;34839;-33.872;151.172;2022-10-10T11:05:06;7.43;;;1.52;;
49023;SDS011;34839;-33.872;151.172;2022-10-10T11:07:42;9.35;;;2.30;;
49023;SDS011;34839;-33.872;151.172;2022-10-10T11:13:08;8.15;;;1.73;;
49023;SDS011;34839;-33.872;151.172;2022-10-10T11:15:50;10.38;;;1.90;;
49023;SDS011;34839;-33.872;151.172;2022-10-10T11:18:29;10.55;;;2.17;;
49023;SDS011;34839;-33.872;151.172;2022-10-10T11:21:05;9.00;;;2.22;;
49023;SDS011;34839;-33.872;151.172;2022-10-10T11:23:49;7.78;;;2.10;;
49023;SDS011;34839;-33.872;151.172;2022-10-10T11:26:27;9.43;;;1.95;;
49023;SDS011;34839;-33.872;151.172;2022-10-10T11:28:57;7.57;;;2.03;;
49023;SDS011;34839;-33.872;151.172;2022-10-10T11:35:00;9.43;;;1.98;;
49023;SDS011;34839;-33.872;151.172;2022-10-10T11:37:18;9.52;;;2.08;;
49023;SDS011;34839;-33.872;151.172;2022-10-10T11:42:18;7.22;;;1.45;;
49023;SDS011;34839;-33.872;151.172;2022-10-10T11:44:47;7.47;;;1.52;;
49023;SDS011;34839;-33.872;151.172;2022-10-10T11:57:43;7.40;;;1.75;;
49023;SDS011;34839;-33.872;151.172;2022-10-10T12:00:12;7.15;;;1.60;;
49023;SDS011;34839;-33.872;151.172;2022-10-10T12:02:40;6.18;;;1.63;;
49023;SDS011;34839;-33.872;151.172;2022-10-10T12:10:31;8.60;;;2.30;;
49023;SDS011;34839;-33.872;151.172;2022-10-10T12:13:18;9.45;;;1.60;;
49023;SDS011;34839;-33.872;151.172;2022-10-10T12:15:47;8.18;;;2.40;;
49023;SDS011;34839;-33.872;151.172;2022-10-10T12:18:50;8.55;;;2.00;;
49023;SDS011;34839;-33.872;151.172;2022-10-10T12:21:11;8.95;;;1.70;;
49023;SDS011;34839;-33.872;151.172;2022-10-10T12:23:38;10.88;;;2.30;;
49023;SDS011;34839;-33.872;151.172;2022-10-10T12:26:18;6.55;;;1.85;;
49023;SDS011;34839;-33.872;151.172;2022-10-10T12:29:00;6.07;;;1.58;;
49023;SDS011;34839;-33.872;151.172;2022-10-10T12:31:29;5.00;;;1.52;;
49023;SDS011;34839;-33.872;151.172;2022-10-10T12:33:59;5.43;;;1.85;;
49023;SDS011;34839;-33.872;151.172;2022-10-10T12:49:53;9.55;;;1.80;;
49023;SDS011;34839;-33.872;151.172;2022-10-10T12:52:32;7.60;;;1.58;;
49023;SDS011;34839;-33.872;151.172;2022-10-10T12:55:02;5.20;;;1.40;;
49023;SDS011;34839;-33.872;151.172;2022-10-10T12:57:32;6.32;;;1.77;;
49023;SDS011;34839;-33.872;151.172;2022-10-10T13:00:20;3.88;;;1.27;;
49023;SDS011;34839;-33.872;151.172;2022-10-10T13:02:55;4.78;;;1.42;;
49023;SDS011;34839;-33.872;151.172;2022-10-10T13:05:32;5.10;;;1.42;;
49023;SDS011;34839;-33.872;151.172;2022-10-10T13:08:02;6.82;;;1.85;;
49023;SDS011;34839;-33.872;151.172;2022-10-10T13:10:31;6.18;;;1.92;;
49023;SDS011;34839;-33.872;151.172;2022-10-10T13:13:00;8.38;;;1.73;;
49023;SDS011;34839;-33.872;151.172;2022-10-10T13:15:28;8.32;;;1.75;;
49023;SDS011;34839;-33.872;151.172;2022-10-10T13:17:56;5.65;;;1.42;;
49023;SDS011;34839;-33.872;151.172;2022-10-10T13:20:36;6.60;;;1.35;;
49023;SDS011;34839;-33.872;151.172;2022-10-10T13:23:06;5.05;;;1.63;;
49023;SDS011;34839;-33.872;151.172;2022-10-10T13:25:36;10.07;;;1.63;;
49023;SDS011;34839;-33.872;151.172;2022-10-10T13:28:04;7.35;;;1.50;;
49023;SDS011;34839;-33.872;151.172;2022-10-10T13:30:40;3.15;;;1.27;;
49023;SDS011;34839;-33.872;151.172;2022-10-10T13:33:15;8.25;;;1.98;;
49023;SDS011;34839;-33.872;151.172;2022-10-10T13:35:43;3.85;;;1.17;;
49023;SDS011;34839;-33.872;151.172;2022-10-10T13:38:14;5.85;;;1.38;;
49023;SDS011;34839;-33.872;151.172;2022-10-10T13:40:42;9.48;;;1.95;;
49023;SDS011;34839;-33.872;151.172;2022-10-10T13:43:16;10.98;;;2.38;;
49023;SDS011;34839;-33.872;151.172;2022-10-10T13:45:45;11.15;;;3.03;;
49023;SDS011;34839;-33.872;151.172;2022-10-10T13:48:20;10.38;;;3.10;;
49023;SDS011;34839;-33.872;151.172;2022-10-10T13:51:09;17.13;;;3.55;;
49023;SDS011;34839;-33.872;151.172;2022-10-10T13:58:43;9.32;;;2.75;;
49023;SDS011;34839;-33.872;151.172;2022-10-10T14:01:53;7.15;;;1.95;;
49023;SDS011;34839;-33.872;151.172;2022-10-10T14:12:00;9.73;;;2.50;;
49023;SDS011;34839;-33.872;151.172;2022-10-10T14:15:01;7.28;;;2.08;;
49023;SDS011;34839;-33.872;151.172;2022-10-10T14:17:22;7.20;;;2.20;;
49023;SDS011;34839;-33.872;151.172;2022-10-10T14:19:49;7.55;;;2.10;;
49023;SDS011;34839;-33.872;151.172;2022-10-10T14:22:17;10.27;;;1.80;;
49023;SDS011;34839;-33.872;151.172;2022-10-10T14:24:44;8.88;;;2.15;;
49023;SDS011;34839;-33.872;151.172;2022-10-10T14:29:42;7.25;;;2.42;;
49023;SDS011;34839;-33.872;151.172;2022-10-10T14:32:10;9.00;;;2.28;;
49023;SDS011;34839;-33.872;151.172;2022-10-10T14:34:37;8.05;;;2.10;;
49023;SDS011;34839;-33.872;151.172;2022-10-10T14:37:05;9.98;;;2.75;;
49023;SDS011;34839;-33.872;151.172;2022-10-10T14:39:32;8.50;;;2.33;;
49023;SDS011;34839;-33.872;151.172;2022-10-10T14:42:00;10.50;;;1.98;;
49023;SDS011;34839;-33.872;151.172;2022-10-10T14:44:28;8.25;;;2.97;;
49023;SDS011;34839;-33.872;151.172;2022-10-10T14:46:56;6.57;;;2.55;;
49023;SDS011;34839;-33.872;151.172;2022-10-10T14:49:23;10.68;;;3.33;;
49023;SDS011;34839;-33.872;151.172;2022-10-10T14:51:50;8.73;;;2.67;;
49023;SDS011;34839;-33.872;151.172;2022-10-10T14:54:17;7.05;;;2.70;;
49023;SDS011;34839;-33.872;151.172;2022-10-10T14:56:45;8.85;;;2.65;;
49023;SDS011;34839;-33.872;151.172;2022-10-10T14:59:19;10.52;;;2.83;;
49023;SDS011;34839;-33.872;151.172;2022-10-10T15:01:47;18.15;;;3.00;;
49023;SDS011;34839;-33.872;151.172;2022-10-10T15:04:14;11.07;;;2.90;;
49023;SDS011;34839;-33.872;151.172;2022-10-10T15:06:41;7.15;;;2.65;;
49023;SDS011;34839;-33.872;151.172;2022-10-10T15:09:09;11.73;;;3.20;;
49023;SDS011;34839;-33.872;151.172;2022-10-10T15:11:37;11.05;;;2.92;;
49023;SDS011;34839;-33.872;151.172;2022-10-10T15:14:04;8.98;;;2.83;;
49023;SDS011;34839;-33.872;151.172;2022-10-10T15:16:31;9.27;;;3.00;;
49023;SDS011;34839;-33.872;151.172;2022-10-10T15:18:59;11.25;;;3.00;;
49023;SDS011;34839;-33.872;151.172;2022-10-10T15:21:26;5.93;;;2.92;;
49023;SDS011;34839;-33.872;151.172;2022-10-10T15:23:53;8.95;;;3.00;;
49023;SDS011;34839;-33.872;151.172;2022-10-10T15:26:21;9.13;;;3.42;;
49023;SDS011;34839;-33.872;151.172;2022-10-10T15:28:49;10.20;;;3.20;;
49023;SDS011;34839;-33.872;151.172;2022-10-10T15:31:24;11.45;;;3.53;;
49023;SDS011;34839;-33.872;151.172;2022-10-10T15:33:53;10.25;;;3.10;;
49023;SDS011;34839;-33.872;151.172;2022-10-10T15:36:20;8.32;;;3.45;;
49023;SDS011;34839;-33.872;151.172;2022-10-10T15:38:47;12.07;;;2.72;;
49023;SDS011;34839;-33.872;151.172;2022-10-10T15:41:15;9.50;;;3.10;;
49023;SDS011;34839;-33.872;151.172;2022-10-10T15:43:47;8.80;;;3.00;;
49023;SDS011;34839;-33.872;151.172;2022-10-10T15:46:19;10.85;;;3.28;;
49023;SDS011;34839;-33.872;151.172;2022-10-10T15:48:47;10.23;;;2.67;;
49023;SDS011;34839;-33.872;151.172;2022-10-10T15:51:14;14.80;;;3.05;;
49023;SDS011;34839;-33.872;151.172;2022-10-10T15:53:42;11.38;;;3.10;;
49023;SDS011;34839;-33.872;151.172;2022-10-10T15:56:13;10.68;;;2.70;;
49023;SDS011;34839;-33.872;151.172;2022-10-10T15:58:40;13.20;;;3.50;;
49023;SDS011;34839;-33.872;151.172;2022-10-10T16:01:09;10.68;;;3.42;;
49023;SDS011;34839;-33.872;151.172;2022-10-10T16:03:36;10.77;;;3.20;;
49023;SDS011;34839;-33.872;151.172;2022-10-10T16:06:04;11.57;;;3.20;;
49023;SDS011;34839;-33.872;151.172;2022-10-10T16:08:32;10.85;;;3.33;;
49023;SDS011;34839;-33.872;151.172;2022-10-10T16:11:03;7.82;;;3.20;;
49023;SDS011;34839;-33.872;151.172;2022-10-10T16:13:31;8.05;;;3.47;;
49023;SDS011;34839;-33.872;151.172;2022-10-10T16:15:59;10.52;;;3.05;;
49023;SDS011;34839;-33.872;151.172;2022-10-10T16:18:28;11.43;;;3.53;;
49023;SDS011;34839;-33.872;151.172;2022-10-10T16:20:55;7.05;;;2.78;;